METAR AND TAF INFORMATION
METAR FOR LCPH
ADDS - METARS form results

(1920 UTC 23 February 2020)
Data provider http://aviationweather.gov/metar/data/
 
METAR text: LCPH 231900Z 02007KT 9999 FEW025 12/08 Q1018
Conditions at: LCPH (PAPHOS/BAF INTL , CY) observed 1900 UTC 23 February 2020
Temperature: 12.0°C (54°F)
Dewpoint: 8.0°C (46°F) [RH = 76%]
Pressure (altimeter): 30.06 inches Hg (1018.0 mb)
Winds: from the NNE (20 degrees) at 8 MPH (7 knots; 3.6 m/s)
Visibility: 6 or more miles (10+ km)
Ceiling: at least 12,000 feet AGL
Clouds: few clouds at 2500 feet AGL
Weather: no significant weather observed at this time

METAR text: LCPH 231830Z 03006KT 9999 FEW025 12/08 Q1019
Conditions at: LCPH (PAPHOS/BAF INTL , CY) observed 1830 UTC 23 February 2020
Temperature: 12.0°C (54°F)
Dewpoint: 8.0°C (46°F) [RH = 76%]
Pressure (altimeter): 30.09 inches Hg (1019.0 mb)
Winds: from the NNE (30 degrees) at 7 MPH (6 knots; 3.1 m/s)
Visibility: 6 or more miles (10+ km)
Ceiling: at least 12,000 feet AGL
Clouds: few clouds at 2500 feet AGL
Weather: no significant weather observed at this time

Forecast for: LCPH (PAPHOS/BAF INTL , CY)
Text: TAF LCPH 231730Z 2318/2418 03008KT 9999 FEW020 SCT040
Forecast period: 1800 UTC 23 February 2020 to 0900 UTC 24 February 2020
Forecast type: FROM: standard forecast or significant change
Winds: from the NNE (30 degrees) at 9 MPH (8 knots; 4.1 m/s)
Visibility: 6 or more miles 10+ km)
Ceiling: at least 12,000 feet AGL
Clouds: few clouds at 2000 feet AGL
scattered clouds at 4000 feet AGL
Weather: no significant weather forecast for this period
Text: PROB30
Forecast period: 0200 to 1500 UTC 24 February 2020
Forecast type: TEMPORARY: The following changes expected for less than half the time period
Visibility: 3 miles (5 km)
Ceiling: at least 12,000 feet AGL
Clouds: scattered clouds at 3000 feet AGL
Weather: SHRA  (rain showers)
Text: TEMPO 2402/2415 5000 SHRA SCT030TCU
Forecast period: 0900 to 1800 UTC 24 February 2020
Forecast type: BECOMING: Conditions expected to become as follows by 1200 UTC 24 February 2020
Winds: from the NW (320 degrees) at 16 MPH (14 knots; 7.2 m/s)
Visibility: 6 or more miles 10+ km)
Ceiling: at least 12,000 feet AGL
Clouds: few clouds at 2000 feet AGL
scattered clouds at 4000 feet AGL
Weather: no significant weather forecast for this period

 AIRPORT MAP

 RUNWAY INFORMATION
Runway 11 Runway length 8858 ft Runway width 148 ft
Runway elevation 41 ft Runway displaced threshold 0 ft Runway heading 110
Runway 29 Runway length 8858 ft Runway width 148 ft
Runway elevation 30 ft Runway displaced threshold 0 ft Runway heading 290

 AIRPORT FREQUENCIES
Type APP Name APP Frequency 120.8 MHZ
Type TWR Name TWR Frequency 119.9 MHZ

 AIRPORT NEAR NAVIGATION AIDS
Type TACAN Name Pafos Frequency 113200 KHZ
Type VOR-DME Name Pafos Frequency 117900 KHZ
Type NDB Name Pafos Frequency 328 KHZ



Powered by Virtual Airlines Manager [v2.6.2]